Santa Barbara — 3FWW8 — position and weather

sailwx.info

Track history (hours):
 
Tides and Currents Weather Stations Pressure Air Temp Water Temp Dewpoint Dewpoint Depression Visibility Wind Speed Wind Dir Waves Ship Positions

Santa Barbara

Last reported at 2016-Jul-29 17:18 UTC. Time now 2016-Jul-29 17:53 UTC.
Position N 31°22' E 121°43'.

Length 225 m; draft 4.9 m.

Type: Cargo ship. MMSI: 372230000.

Date/timePositionNaut miles runAvg speedWind from/ knotsBaromVisibWave heightAir tempDewpointWater temp
2016-Jul-29 17:18N 31°22' E 121°43'0 0.0
2016-Jul-29 16:30N 31°22' E 121°43'0 0.0
2016-Jul-29 12:24N 31°22' E 121°43'0 0.0
2016-Jul-29 11:24N 31°22' E 121°43'0 0.0
2016-Jul-29 10:30N 31°22' E 121°43'0 0.0
2016-Jul-29 08:05N 31°22' E 121°43'0 0.0
2016-Jul-29 07:33N 31°22' E 121°43'1 0.2
2016-Jul-29 04:12N 31°21' E 121°43'0 0.0
2016-Jul-29 01:25N 31°21' E 121°43'3 3.4
2016-Jul-29 00:32N 31°19' E 121°44'9 9.5
2016-Jul-28 23:33N 31°23' E 121°35'9 9.0
2016-Jul-28 22:33N 31°29' E 121°27'5 5.4
2016-Jul-28 21:33N 31°32' E 121°21'9 8.7
2016-Jul-28 20:32N 31°38' E 121°14'11 8.9
2016-Jul-28 19:18N 31°45' E 121°04'8 9.4
2016-Jul-28 18:28N 31°48' E 120°56'7 7.5
2016-Jul-28 17:29N 31°55' E 120°53'8 8.5
2016-Jul-28 16:33N 32°01' E 120°46'10 8.2
2016-Jul-28 15:21N 32°00' E 120°35'5 6.9
2016-Jul-28 14:33N 32°02' E 120°29'8 8.1
2016-Jul-28 13:33N 31°59' E 120°20'1111.2
2016-Jul-28 12:33N 31°57' E 120°07'1413.6
2016-Jul-28 11:30N 32°06' E 119°55'  
Track history (hours):
 
Tides and Currents Weather Stations Pressure Air Temp Water Temp Dewpoint Dewpoint Depression Visibility Wind Speed Wind Dir Waves Ship Positions

Santa Barbara

Last reported at 2016-Jul-29 17:18 UTC. Time now 2016-Jul-29 17:53 UTC.
Position N 31°22' E 121°43'.

Length 225 m; draft 4.9 m.

Type: Cargo ship. MMSI: 372230000.

Date/timePositionNaut miles runAvg speedWind from/ knotsBaromVisibWave heightAir tempDewpointWater temp
2016-Jul-29 17:18N 31°22' E 121°43'0 0.0
2016-Jul-29 16:30N 31°22' E 121°43'0 0.0
2016-Jul-29 12:24N 31°22' E 121°43'0 0.0
2016-Jul-29 11:24N 31°22' E 121°43'0 0.0
2016-Jul-29 10:30N 31°22' E 121°43'0 0.0
2016-Jul-29 08:05N 31°22' E 121°43'0 0.0
2016-Jul-29 07:33N 31°22' E 121°43'1 0.2
2016-Jul-29 04:12N 31°21' E 121°43'0 0.0
2016-Jul-29 01:25N 31°21' E 121°43'3 3.4
2016-Jul-29 00:32N 31°19' E 121°44'9 9.5
2016-Jul-28 23:33N 31°23' E 121°35'9 9.0
2016-Jul-28 22:33N 31°29' E 121°27'5 5.4
2016-Jul-28 21:33N 31°32' E 121°21'9 8.7
2016-Jul-28 20:32N 31°38' E 121°14'11 8.9
2016-Jul-28 19:18N 31°45' E 121°04'8 9.4
2016-Jul-28 18:28N 31°48' E 120°56'7 7.5
2016-Jul-28 17:29N 31°55' E 120°53'8 8.5
2016-Jul-28 16:33N 32°01' E 120°46'10 8.2
2016-Jul-28 15:21N 32°00' E 120°35'5 6.9
2016-Jul-28 14:33N 32°02' E 120°29'8 8.1
2016-Jul-28 13:33N 31°59' E 120°20'1111.2
2016-Jul-28 12:33N 31°57' E 120°07'1413.6
2016-Jul-28 11:30N 32°06' E 119°55'  

Dump ship's entire track history